createdAt,value
2023-03-23T15:58:35.760Z,100162.54
2023-03-23T16:01:08.632Z,100167.20
2023-03-23T16:03:42.501Z,100168.71
2023-03-23T16:06:23.928Z,100167.14
2023-03-23T16:08:55.236Z,100165.47
2023-03-23T16:11:27.579Z,100162.61
2023-03-23T16:13:56.215Z,100168.14
2023-03-23T16:16:33.070Z,100171.95
2023-03-23T16:19:06.789Z,100171.31
2023-03-23T16:21:36.573Z,100167.86
2023-03-23T16:24:05.049Z,100168.45
2023-03-23T16:26:33.430Z,100168.65
2023-03-23T16:29:13.887Z,100168.02
2023-03-23T16:31:48.514Z,100172.70
2023-03-23T16:34:16.876Z,100173.19
2023-03-23T16:36:45.104Z,100174.92
2023-03-23T16:39:16.026Z,100171.31
2023-03-23T16:41:44.100Z,100171.86
2023-03-23T16:44:14.810Z,100174.95
2023-03-23T16:46:43.144Z,100175.56
2023-03-23T16:49:11.882Z,100176.51
2023-03-23T16:51:42.962Z,100176.29
2023-03-23T16:54:11.607Z,100174.92
2023-03-23T16:56:49.994Z,100174.82
2023-03-23T16:59:18.401Z,100174.04
2023-03-23T17:01:46.852Z,100175.46
2023-03-23T17:04:15.874Z,100180.89
2023-03-23T17:06:46.212Z,100182.39
2023-03-23T17:09:14.799Z,100177.55
2023-03-23T17:11:43.831Z,100177.56
2023-03-23T17:14:12.268Z,100182.48
2023-03-23T17:16:42.886Z,100180.23
2023-03-23T17:19:17.188Z,100178.73
2023-03-23T17:21:45.696Z,100183.27
2023-03-23T17:24:20.831Z,100183.67
2023-03-23T17:26:49.578Z,100182.02
2023-03-23T17:29:18.049Z,100181.20
2023-03-23T17:31:50.520Z,100181.98
2023-03-23T17:34:19.440Z,100181.52
2023-03-23T17:36:51.844Z,100182.60
2023-03-23T17:39:20.018Z,100182.11
2023-03-23T17:41:48.546Z,100184.23
2023-03-23T17:44:16.888Z,100180.48
2023-03-23T17:46:46.492Z,100180.48
2023-03-23T17:49:14.967Z,100178.45
2023-03-23T17:51:45.651Z,100176.67
2023-03-23T17:54:14.308Z,100177.08
2023-03-23T17:56:42.896Z,100175.37
2023-03-23T17:59:11.513Z,100175.77
2023-03-23T18:01:39.479Z,100176.40
2023-03-23T18:04:08.214Z,100176.89
2023-03-23T18:06:36.254Z,100176.42
2023-03-23T18:09:05.765Z,100175.84
2023-03-23T18:11:35.111Z,100174.97
2023-03-23T18:14:03.366Z,100179.31
2023-03-23T18:16:35.093Z,100177.38
2023-03-23T18:19:06.663Z,100176.13
2023-03-23T18:21:35.086Z,100172.96
2023-03-23T18:24:08.386Z,100170.73
2023-03-23T18:26:36.941Z,100175.48
2023-03-23T18:29:04.939Z,100172.05
2023-03-23T18:31:34.362Z,100171.96
2023-03-23T18:34:02.591Z,100176.02
2023-03-23T18:36:32.267Z,100174.16
2023-03-23T18:39:00.786Z,100173.42
2023-03-23T18:41:29.167Z,100170.95
2023-03-23T18:43:57.877Z,100168.13
2023-03-23T18:46:28.058Z,100166.70
2023-03-23T18:48:56.343Z,100170.71
2023-03-23T18:51:26.182Z,100168.34
2023-03-23T18:53:55.196Z,100169.10
2023-03-23T18:56:23.368Z,100167.04
2023-03-23T18:58:53.611Z,100170.73
2023-03-23T19:01:22.485Z,100172.13
2023-03-23T19:03:50.723Z,100173.48
2023-03-23T19:06:24.807Z,100169.89
2023-03-23T19:08:53.621Z,100168.92
2023-03-23T19:11:25.433Z,100162.48
2023-03-23T19:14:02.598Z,100160.45
2023-03-23T19:16:32.909Z,100158.66
2023-03-23T19:19:06.312Z,100156.21
2023-03-23T19:21:35.898Z,100156.98
2023-03-23T19:24:04.047Z,100157.02
2023-03-23T19:26:43.431Z,100158.73
2023-03-23T19:29:25.295Z,100162.79
2023-03-23T19:32:01.572Z,100164.78
2023-03-23T19:34:31.084Z,100169.89
2023-03-23T19:37:05.381Z,100167.91
2023-03-23T19:39:36.177Z,100166.84
2023-03-23T19:42:06.323Z,100166.14
2023-03-23T19:44:34.935Z,100165.75
2023-03-23T19:47:04.176Z,100165.55
2023-03-23T19:49:37.259Z,100164.09
2023-03-23T19:52:11.994Z,100163.80
2023-03-23T19:54:42.207Z,100160.79
2023-03-23T19:57:11.917Z,100159.31
2023-03-23T19:59:40.476Z,100157.10
2023-03-23T20:02:11.677Z,100157.01
2023-03-23T20:04:41.540Z,100154.92
2023-03-23T20:07:10.235Z,100149.19
2023-03-23T20:09:39.042Z,100148.64
2023-03-23T20:12:10.795Z,100150.27
2023-03-23T20:14:44.474Z,100149.60
2023-03-23T20:17:14.758Z,100148.77
2023-03-23T20:19:45.645Z,100148.12
2023-03-23T20:22:14.845Z,100148.95
2023-03-23T20:24:47.240Z,100147.49
2023-03-23T20:27:15.766Z,100143.98
2023-03-23T20:29:45.096Z,100141.80
2023-03-23T20:32:16.536Z,100142.70
2023-03-23T20:34:48.943Z,100143.55
2023-03-23T20:37:20.542Z,100141.63
2023-03-23T20:39:50.379Z,100138.88
2023-03-23T20:42:19.382Z,100141.06
2023-03-23T20:44:47.785Z,100139.95
2023-03-23T20:47:18.093Z,100135.98
2023-03-23T20:49:53.195Z,100136.59
2023-03-23T20:52:23.539Z,100133.64
2023-03-23T20:54:55.068Z,100134.01
2023-03-23T20:57:23.475Z,100130.39
2023-03-23T20:59:53.609Z,100128.55
2023-03-23T21:02:22.370Z,100129.64
2023-03-23T21:04:53.063Z,100132.93
2023-03-23T21:07:24.066Z,100129.62
2023-03-23T21:09:52.511Z,100126.52
2023-03-23T21:12:22.945Z,100127.80
2023-03-23T21:14:51.677Z,100128.48
2023-03-23T21:17:20.033Z,100128.56
2023-03-23T21:19:48.991Z,100124.17
2023-03-23T21:22:18.856Z,100124.55
2023-03-23T21:24:47.006Z,100123.52
2023-03-23T21:27:16.825Z,100123.60
2023-03-23T21:29:45.076Z,100123.13
2023-03-23T21:32:13.781Z,100125.96
2023-03-23T21:34:46.822Z,100124.88
2023-03-23T21:37:16.213Z,100123.59
2023-03-23T21:39:45.692Z,100123.43
2023-03-23T21:42:14.272Z,100124.67
2023-03-23T21:44:43.064Z,100124.08
2023-03-23T21:47:14.869Z,100125.52
2023-03-23T21:49:46.168Z,100124.59
2023-03-23T21:52:14.329Z,100124.52
2023-03-23T21:54:43.737Z,100124.29
2023-03-23T21:57:12.567Z,100120.52
2023-03-23T21:59:43.360Z,100122.65
2023-03-23T22:02:13.380Z,100120.27
2023-03-23T22:04:41.862Z,100116.84
2023-03-23T22:07:15.360Z,100118.39
2023-03-23T22:09:45.483Z,100122.81
2023-03-23T22:12:14.291Z,100124.20
2023-03-23T22:14:42.647Z,100121.83
2023-03-23T22:17:12.355Z,100125.05
2023-03-23T22:19:40.746Z,100127.60
2023-03-23T22:22:12.595Z,100128.75
2023-03-23T22:24:41.725Z,100128.83
2023-03-23T22:27:10.178Z,100124.91
2023-03-23T22:29:38.559Z,100126.58
2023-03-23T22:32:06.849Z,100127.88
2023-03-23T22:34:35.121Z,100126.91
2023-03-23T22:37:05.787Z,100129.33
2023-03-23T22:39:34.662Z,100128.34
2023-03-23T22:42:06.610Z,100132.05
2023-03-23T22:44:36.639Z,100133.84
2023-03-23T22:47:05.110Z,100131.00
2023-03-23T22:49:36.249Z,100127.07
2023-03-23T22:52:05.058Z,100132.17
2023-03-23T22:54:41.524Z,100130.17
2023-03-23T22:57:11.187Z,100130.01
2023-03-23T22:59:39.711Z,100134.79
2023-03-23T23:02:07.880Z,100137.02
2023-03-23T23:04:37.449Z,100131.97
2023-03-23T23:07:12.786Z,100133.27
2023-03-23T23:09:55.438Z,100138.80
2023-03-23T23:12:24.531Z,100142.17
2023-03-23T23:14:58.603Z,100134.88
2023-03-23T23:17:27.843Z,100132.68
2023-03-23T23:19:57.656Z,100128.79
2023-03-23T23:22:25.794Z,100126.69
2023-03-23T23:24:54.637Z,100126.28
2023-03-23T23:27:22.848Z,100121.75
2023-03-23T23:29:51.174Z,100113.37
2023-03-23T23:32:19.803Z,100108.83
2023-03-23T23:34:48.751Z,100108.23
2023-03-23T23:37:17.441Z,100107.08
2023-03-23T23:39:45.719Z,100099.67
2023-03-23T23:42:14.113Z,100105.13
2023-03-23T23:44:45.309Z,100107.77
2023-03-23T23:47:18.941Z,100118.25
2023-03-23T23:49:47.335Z,100115.62
2023-03-23T23:52:15.818Z,100117.10
2023-03-23T23:54:51.768Z,100113.92
2023-03-23T23:57:19.937Z,100110.98
2023-03-23T23:59:48.110Z,100104.55
